PERPET Weather Reports


Display with metric or nautical units.
time (UTC)temp
F
wind
direction
speed
MPH
gust
MPH
rain 1hr
in
rain 24hr
in
rain mn
in
humidity
%
barometer
mb
20210309065854 36 88 13.0 29.0 0.05 0.10 0.09 1012.4
20210309064707 36 149 12.0 28.0 0.05 0.10 0.09 1012.2
20210309064331 36 120 6.0 28.0 0.05 0.10 0.09 1012.6
20210309063918 36 96 11.0 21.0 0.05 0.10 0.09 1012.6
20210309063415 37 162 5.0 21.0 0.05 0.10 0.09 1012.8
20210309062947 37 119 9.0 21.0 0.05 0.10 0.09 1012.7
20210309062325 37 98 11.0 19.0 0.05 0.10 0.09 1012.7
20210309061421 37 78 9.0 19.0 0.05 0.09 0.09 1012.8
20210309060909 37 163 5.0 19.0 0.05 0.08 0.08 1012.8
20210309060628 37 170 8.0 21.0 0.03 0.08 0.08 1012.9
20210309060326 37 156 9.0 21.0 0.03 0.07 0.07 1013.1
20210309060037 38 124 9.0 21.0 0.01 0.05 0.06 1013.0
20210309055323 38 133 11.0 19.0 0.01 0.05 0.05 1012.9
20210309054427 38 123 9.0 20.0 0.01 0.05 0.04 1012.7
20210309053918 38 120 11.0 20.0 0.01 0.05 0.04 1012.7
20210309053553 37 141 8.0 20.0 0.01 0.05 0.04 1012.8
20210309053340 37 158 8.0 27.0 0.01 0.05 0.04 1012.7
20210309052935 38 135 13.0 27.0 0.01 0.05 0.04 1012.8
20210309052212 37 155 11.0 27.0 0.01 0.05 0.04 1012.8
20210309051414 37 161 12.0 27.0 0.00 0.04 0.04 1012.6
20210309050924 37 149 11.0 27.0 0.00 0.04 0.04 1012.8
20210309050412 38 154 8.0 27.0 0.00 0.04 0.03 1012.8
20210309050106 38 138 11.0 22.0 0.00 0.04 0.03 1012.9
20210309045921 38 141 12.0 22.0 0.00 0.04 0.03 1012.8
20210309045123 37 148 13.0 21.0 0.00 0.04 0.03 1012.7
20210309044409 37 113 8.0 21.0 0.02 0.04 0.03 1012.7
20210309043909 37 131 11.0 19.0 0.02 0.04 0.03 1012.8
20210309043619 37 140 12.0 18.0 0.02 0.04 0.03 1012.8
20210309043207 37 158 12.0 16.0 0.02 0.04 0.03 1012.9
20210309043023 37 158 7.0 16.0 0.02 0.04 0.03 1012.9
20210309042424 37 113 7.0 24.0 0.02 0.04 0.03 1013.0
20210309040916 37 158 8.0 24.0 0.02 0.03 0.03 1013.1
20210309040410 36 156 14.0 20.0 0.02 0.03 0.03 1013.0
20210309040236 37 162 8.0 24.0 0.02 0.03 0.03 1013.1
20210309034409 37 110 11.0 24.0 0.00 0.02 0.02 1013.4
20210309033913 37 239 8.0 23.0 0.00 0.02 0.01 1013.3
20210309033413 38 162 10.0 23.0 0.00 0.02 0.01 1013.4
20210309033011 38 229 12.0 22.0 0.00 0.02 0.01 1013.1
20210309032843 38 140 11.0 22.0 0.00 0.02 0.01 1013.1
20210309032014 38 158 8.0 22.0 0.00 0.02 0.01 1013.3
20210309031419 38 142 15.0 18.0 0.00 0.02 0.01 1013.3
20210309030912 39 145 5.0 17.0 0.00 0.02 0.01 1013.3
20210309030529 37 161 10.0 17.0 0.00 0.02 0.01 1013.1
20210309030137 38 154 12.0 21.0 0.00 0.02 0.01 1013.0
20210309025925 38 191 11.0 21.0 0.00 0.02 0.01 1013.3
20210309025054 39 165 5.0 21.0 0.00 0.02 0.01 1013.3
20210309024438 38 194 11.0 17.0 0.00 0.02 0.01 1013.1
20210309023908 37 135 9.0 16.0 0.00 0.02 0.01 1013.1
20210309023419 38 158 5.0 24.0 0.00 0.02 0.01 1013.3
20210309023105 38 161 10.0 24.0 0.00 0.02 0.01 1013.0
20210309022923 38 212 10.0 24.0 0.00 0.02 0.01 1013.0
20210309021952 38 145 8.0 21.0 0.00 0.02 0.01 1013.0
20210309020912 37 194 11.0 20.0 0.01 0.02 0.01 1012.9
20210309020411 37 155 10.0 20.0 0.01 0.02 0.01 1013.1
20210309015911 38 189 8.0 34.0 0.01 0.02 0.01 1013.1
20210309015719 37 162 12.0 34.0 0.01 0.02 0.01 1013.1
20210309014941 37 203 7.0 34.0 0.01 0.02 0.01 1013.1
20210309014515 37 197 9.0 24.0 0.01 0.02 0.01 1013.1
20210309013910 38 191 13.0 24.0 0.01 0.02 0.01 1013.1
20210309013411 37 158 8.0 17.0 0.01 0.02 0.01 1013.3
20210309012941 38 197 10.0 30.0 0.01 0.02 0.01 1013.1
20210309012844 37 200 13.0 30.0 0.01 0.02 0.01 1013.1
20210309012150 38 205 11.0 30.0 0.01 0.02 0.01 1013.1
20210309011410 37 168 12.0 29.0 0.00 0.01 0.01 1013.0
20210309010909 37 226 13.0 29.0 0.00 0.01 0.00 1013.0
20210309010300 38 201 13.0 26.0 0.00 0.01 0.00 1013.3
20210309005226 38 198 12.0 33.0 0.00 0.01 0.00 1013.1
20210309004411 38 193 9.0 33.0 0.00 0.01 0.00 1013.0
20210309003912 38 166 11.0 23.0 0.00 0.01 0.00 1012.8
20210309003413 38 208 8.0 31.0 0.00 0.01 0.00 1013.0
20210309003058 37 189 12.0 31.0 0.00 0.01 0.00 1012.9
20210309002058 37 240 11.0 28.0 0.00 0.01 0.00 1013.0
20210309001418 37 198 15.0 28.0 0.00 0.01 0.00 1012.8
20210309001146 38 149 10.0 40.0 0.00 0.01 0.00 1013.0
20210309000238 38 193 12.0 40.0 0.00 0.01 0.00 1012.8
20210308234412 39 219 14.0 31.0 0.00 0.01 0.00 1012.9
20210308233910 39 193 18.0 26.0 0.00 0.01 0.00 1012.7
20210308233137 40 218 10.0 26.0 0.01 0.01 0.00 1012.9
20210308232922 40 200 11.0 34.0 0.01 0.01 0.00 1012.8
20210308232116 41 197 15.0 34.0 0.01 0.01 0.00 1012.7
20210308231413 41 197 13.0 34.0 0.01 0.01 0.00 1012.7
20210308230911 40 196 17.0 33.0 0.01 0.01 0.01 1012.6
20210308225907 39 214 13.0 31.0 0.01 0.01 0.01 1012.5
20210308225455 39 197 16.0 29.0 0.01 0.01 0.01 1012.5
20210308224933 38 218 15.0 29.0 0.01 0.01 0.01 1012.5
20210308224409 39 179 11.0 23.0 0.01 0.01 0.01 1012.6
20210308223421 38 207 10.0 20.0 0.00 0.01 0.01 1012.4
20210308223046 39 169 9.0 15.0 0.00 0.00 0.00 1012.6
20210308222844 40 39 8.0 21.0 0.00 0.00 0.00 1012.5
20210308222032 40 100 12.0 21.0 0.00 0.00 0.00 1012.6
20210308221411 39 147 7.0 21.0 0.00 0.02 0.00 1012.6
20210308220912 40 127 10.0 20.0 0.00 0.02 0.00 1012.6
20210308220413 39 161 8.0 20.0 0.00 0.02 0.00 1012.7
20210308215914 40 191 11.0 16.0 0.00 0.02 0.00 1012.7
20210308215617 39 197 7.0 31.0 0.00 0.02 0.00 1012.7
20210308214407 38 224 9.0 31.0 0.00 0.02 0.00 1012.7
20210308213912 39 193 16.0 18.0 0.00 0.02 0.00 1012.7
20210308212047 42 191 6.0 21.0 0.00 0.02 0.00 1012.6
20210308211411 41 173 10.0 19.0 0.00 0.04 0.00 1012.6
20210308210417 42 193 6.0 25.0 0.00 0.04 0.00 1012.4
20210308210036 44 155 5.0 25.0 0.00 0.04 0.00 1012.3
20210308205844 43 158 13.0 17.0 0.00 0.04 0.00 1012.3
20210308204952 45 141 8.0 17.0 0.00 0.04 0.00 1012.2
20210308204409 46 194 2.0 12.0 0.00 0.04 0.00 1012.3
20210308203910 45 196 2.0 12.0 0.00 0.04 0.00 1012.4
20210308203410 46 168 0.0 11.0 0.00 0.04 0.00 1012.5
20210308202952 44 161 0.0 11.0 0.00 0.04 0.00 1012.4
20210308202847 44 189 3.0 11.0 0.00 0.04 0.00 1012.5
20210308202218 44 196 5.0 19.0 0.00 0.04 0.00 1012.5
20210308201409 43 200 5.0 19.0 0.00 0.06 0.00 1012.5
20210308200906 42 191 8.0 19.0 0.00 0.06 0.00 1012.5
20210308200408 43 225 9.0 15.0 0.00 0.06 0.00 1012.6
20210308195907 43 191 9.0 21.0 0.00 0.06 0.00 1012.5
20210308195628 43 194 7.0 21.0 0.00 0.06 0.00 1012.6
20210308194408 43 194 6.0 20.0 0.00 0.06 0.00 1012.8
20210308193913 41 183 11.0 17.0 0.00 0.06 0.00 1012.8
20210308193408 42 141 7.0 17.0 0.00 0.06 0.00 1012.7
20210308192913 42 226 11.0 21.0 0.00 0.06 0.00 1012.7
20210308192605 42 193 9.0 21.0 0.00 0.06 0.00 1012.7
20210308191947 42 191 9.0 21.0 0.00 0.06 0.00 1012.7
20210308191411 43 193 9.0 18.0 0.00 0.07 0.00 1012.6
20210308190910 44 197 11.0 18.0 0.00 0.07 0.00 1012.6
20210308190407 44 219 5.0 14.0 0.00 0.07 0.00 1012.6
20210308190026 43 217 9.0 18.0 0.00 0.07 0.00 1012.7
20210308185828 43 207 6.0 18.0 0.00 0.07 0.00 1012.6
20210308185032 43 193 11.0 18.0 0.00 0.07 0.00 1012.7
20210308184410 45 193 6.0 13.0 0.00 0.07 0.00 1012.7
20210308183907 44 114 9.0 17.0 0.00 0.07 0.00 1012.6
20210308183408 44 193 5.0 17.0 0.00 0.07 0.00 1012.8
20210308182911 43 149 6.0 17.0 0.00 0.07 0.00 1012.7
20210308182615 42 194 9.0 15.0 0.00 0.07 0.00 1012.6
20210308181945 41 193 9.0 15.0 0.00 0.07 0.00 1012.6
20210308180908 43 145 7.0 13.0 0.00 0.07 0.00 1012.6
20210308180409 41 131 7.0 19.0 0.00 0.07 0.00 1012.6
20210308175953 41 197 8.0 19.0 0.00 0.07 0.00 1012.6
20210308175842 41 198 7.0 19.0 0.00 0.07 0.00 1012.8
20210308175142 40 208 7.0 16.0 0.00 0.07 0.00 1012.8
20210308174410 40 184 8.0 21.0 0.00 0.07 0.00 1012.7
20210308173931 40 193 10.0 21.0 0.00 0.07 0.00 1012.7
20210308173412 41 190 8.0 21.0 0.00 0.07 0.00 1012.6
20210308173110 40 214 11.0 12.0 0.00 0.07 0.00 1012.6
20210308171931 42 194 4.0 15.0 0.00 0.07 0.00 1012.6
20210308171406 42 229 7.0 15.0 0.00 0.07 0.00 1012.5
20210308170906 43 172 1.0 12.0 0.00 0.07 0.00 1012.4
20210308170407 43 203 3.0 12.0 0.00 0.07 0.00 1012.3
20210308165917 43 126 1.0 12.0 0.00 0.07 0.00 1012.4
20210308165518 43 121 4.0 10.0 0.00 0.07 0.00 1012.5
20210308164910 43 96 2.0 10.0 0.00 0.07 0.00 1012.4
20210308164406 42 155 2.0 12.0 0.00 0.07 0.00 1012.4
20210308163906 42 198 4.0 12.0 0.00 0.07 0.00 1012.4
20210308163420 41 162 4.0 12.0 0.00 0.07 0.00 1012.4
20210308162908 41 168 4.0 14.0 0.00 0.07 0.00 1012.4
20210308162631 40 201 6.0 14.0 0.00 0.07 0.00 1012.4
20210308161939 39 197 5.0 14.0 0.00 0.07 0.00 1012.4
20210308161406 40 145 6.0 11.0 0.00 0.07 0.00 1012.3
20210308160909 40 186 5.0 10.0 0.00 0.07 0.00 1012.3
20210308160407 40 187 4.0 9.0 0.00 0.07 0.00 1012.3
20210308155906 40 190 1.0 9.0 0.00 0.07 0.00 1012.3
20210308155657 39 88 0.0 9.0 0.00 0.07 0.00 1012.3
20210308154955 39 114 0.0 9.0 0.00 0.07 0.00 1012.2
20210308154407 39 88 1.0 9.0 0.00 0.07 0.00 1012.1
20210308153909 38 120 5.0 7.0 0.00 0.07 0.00 1012.0
20210308153446 38 110 0.0 7.0 0.00 0.07 0.00 1012.1
20210308153407 38 110 0.0 7.0 0.00 0.07 0.00 1012.1
20210308152909 37 33 5.0 5.0 0.00 0.07 0.00 1012.1
20210308152701 37 63 0.0 8.0 0.00 0.07 0.00 1012.1
20210308151929 37 39 0.0 8.0 0.00 0.07 0.00 1012.2
20210308151406 37 32 0.0 8.0 0.00 0.07 0.00 1012.2
20210308150906 36 39 6.0 9.0 0.00 0.07 0.00 1012.2
20210308150407 37 42 1.0 9.0 0.00 0.07 0.00 1012.3
20210308150024 37 64 2.0 9.0 0.00 0.07 0.00 1012.3
20210308145030 37 64 4.0 12.0 0.00 0.07 0.00 1012.3
20210308144405 37 29 3.0 12.0 0.00 0.07 0.00 1012.3
20210308143906 38 65 6.0 12.0 0.00 0.07 0.00 1012.3
20210308143407 38 32 4.0 8.0 0.00 0.07 0.00 1012.3
20210308142927 38 71 4.0 17.0 0.00 0.07 0.00 1012.3
20210308142800 38 357 5.0 17.0 0.00 0.07 0.00 1012.4
20210308141954 38 42 5.0 17.0 0.00 0.07 0.00 1012.3
20210308141405 37 32 6.0 17.0 0.00 0.10 0.00 1012.2
20210308140906 37 12 7.0 17.0 0.00 0.10 0.00 1012.1
20210308140155 36 46 10.0 16.0 0.00 0.10 0.00 1012.1
20210308140035 37 70 10.0 16.0 0.00 0.10 0.00 1012.2
20210308135521 37 61 8.0 16.0 0.00 0.10 0.00 1012.2
20210308134412 37 53 7.0 17.0 0.00 0.10 0.00 1012.2
20210308133905 37 36 9.0 17.0 0.00 0.10 0.00 1012.3
20210308133145 37 33 9.0 17.0 0.00 0.10 0.00 1012.3
20210308133004 37 16 9.0 14.0 0.00 0.10 0.00 1012.4
20210308132218 37 65 9.0 18.0 0.00 0.10 0.00 1012.4
20210308131424 37 51 7.0 18.0 0.00 0.13 0.00 1012.4
20210308130905 37 5 8.0 18.0 0.00 0.13 0.00 1012.5
20210308130407 37 18 10.0 17.0 0.00 0.13 0.00 1012.6
20210308130100 37 65 9.0 17.0 0.00 0.13 0.00 1012.6
20210308125351 37 39 8.0 11.0 0.00 0.13 0.00 1012.5
20210308124405 37 50 7.0 16.0 0.00 0.13 0.00 1012.6
20210308123905 37 39 7.0 16.0 0.00 0.13 0.00 1012.6
20210308123346 37 63 7.0 18.0 0.00 0.13 0.00 1012.9
20210308123031 37 16 7.0 18.0 0.00 0.13 0.00 1013.0
20210308121426 37 43 7.0 18.0 0.00 0.14 0.00 1013.0
20210308120918 37 47 11.0 17.0 0.00 0.14 0.00 1013.0
20210308120418 37 22 10.0 15.0 0.00 0.14 0.00 1013.1
20210308120114 37 35 8.0 14.0 0.00 0.14 0.00 1013.0
20210308115913 38 43 10.0 21.0 0.00 0.14 0.00 1013.1
20210308115229 37 43 9.0 21.0 0.00 0.14 0.00 1013.3
20210308114409 38 32 7.0 21.0 0.00 0.14 0.00 1013.4
20210308113909 38 44 10.0 17.0 0.00 0.14 0.00 1013.5
20210308113128 38 4 7.0 17.0 0.00 0.14 0.00 1013.5
20210308112953 38 22 8.0 20.0 0.00 0.14 0.00 1013.7
20210308112129 38 50 8.0 20.0 0.00 0.14 0.00 1013.7
20210308111431 37 32 8.0 20.0 0.00 0.14 0.00 1013.7
20210308110906 37 4 9.0 18.0 0.00 0.14 0.00 1013.7
20210308110438 37 22 9.0 18.0 0.00 0.14 0.00 1013.8
20210308110203 38 32 7.0 18.0 0.00 0.14 0.00 1013.9
20210308105944 36 51 10.0 15.0 0.00 0.14 0.00 1013.9
20210308105511 37 23 6.0 15.0 0.00 0.14 0.00 1013.9
20210308104523 37 54 5.0 15.0 0.00 0.14 0.00 1014.0
20210308103910 37 68 8.0 18.0 0.00 0.14 0.00 1014.0
20210308103409 37 60 8.0 18.0 0.00 0.14 0.00 1014.1
20210308103035 37 68 9.0 18.0 0.00 0.14 0.00 1014.1
20210308102849 37 63 10.0 16.0 0.00 0.14 0.00 1014.1
20210308102159 37 70 9.0 16.0 0.00 0.14 0.00 1014.3
20210308101407 37 68 7.0 23.0 0.00 0.21 0.00 1014.3
20210308100928 37 89 7.0 23.0 0.00 0.21 0.00 1014.5
20210308100651 37 40 7.0 23.0 0.00 0.21 0.00 1014.5
20210308100328 37 46 9.0 12.0 0.00 0.21 0.00 1014.6
20210308100040 37 77 8.0 15.0 0.00 0.21 0.00 1014.7
20210308095331 37 81 7.0 15.0 0.00 0.21 0.00 1014.7
20210308093918 37 46 8.0 15.0 0.00 0.21 0.00 1015.0
20210308093412 37 77 8.0 15.0 0.00 0.21 0.00 1015.0
20210308093047 38 47 7.0 15.0 0.00 0.21 0.00 1015.1
20210308092908 38 54 8.0 15.0 0.00 0.21 0.00 1015.1
20210308092155 37 70 8.0 14.0 0.00 0.21 0.00 1015.1
20210308091405 37 49 7.0 18.0 0.00 0.38 0.00 1015.2
20210308090908 38 50 9.0 18.0 0.00 0.38 0.00 1015.2
20210308090435 37 64 7.0 18.0 0.00 0.38 0.00 1015.4
20210308090105 37 56 8.0 17.0 0.00 0.38 0.00 1015.4
20210308085837 37 26 7.0 19.0 0.00 0.38 0.00 1015.4
20210308084947 37 25 9.0 19.0 0.00 0.38 0.00 1015.5
20210308084409 37 40 8.0 19.0 0.00 0.38 0.00 1015.6
20210308083957 37 37 8.0 18.0 0.00 0.38 0.00 1015.6
20210308083755 37 54 7.0 13.0 0.00 0.38 0.00 1015.6
20210308083443 37 49 8.0 17.0 0.00 0.38 0.00 1015.7
20210308083154 37 28 9.0 17.0 0.00 0.38 0.00 1015.8
20210308082439 37 64 8.0 17.0 0.00 0.38 0.00 1015.9
20210308081405 37 19 10.0 16.0 0.00 0.48 0.00 1015.9
20210308080904 38 56 9.0 13.0 0.00 0.48 0.00 1016.1
20210308080405 38 26 8.0 13.0 0.00 0.48 0.00 1016.2
20210308075904 38 57 8.0 19.0 0.00 0.48 0.00 1016.4
20210308075629 38 35 11.0 19.0 0.00 0.48 0.00 1016.5
20210308074907 37 43 11.0 19.0 0.00 0.48 0.00 1016.5
20210308073907 37 46 10.0 14.0 0.00 0.48 0.00 1016.6
20210308073407 37 42 9.0 13.0 0.00 0.48 0.00 1016.7
20210308072905 38 95 7.0 12.0 0.00 0.48 0.00 1016.7
20210308072600 38 16 6.0 12.0 0.00 0.48 0.00 1016.8
20210308071912 38 29 7.0 16.0 0.00 0.48 0.00 1016.9
20210308071405 39 44 8.0 16.0 0.00 0.50 0.00 1017.0
20210308070909 39 37 6.0 16.0 0.00 0.50 0.00 1017.2